メインページ
METAR-TAF:

METAR-TAF

空港 :

ビクトリア国際空港

ビクトリア, ブリティッシュコロンビア州, カナダ

緯度: 48-39N, 経度: 123-26W, 海抜: 20m

現時点の気象観測

当レポートは2時間23分前の11:00(UTC)に作成
西の風 5kt
気温 4°C
湿度 100%
気圧 1019 hPa
視程: 24.1km
高度3000ftの雲はほとんどない
高度6000ftの千切れ雲あり
高度22000ftの曇り

METAR: CYYJ 201100Z 26005KT 15SM FEW030 BKN060 OVC220 04/04 A3008 RMK SC1SC4CI3 SLP188

時間: 05:23 (13:23 UTC)

予報

当レポートは1時間45分前の11:38(UTC)に作成
予報は20日の 12時(UTC)から 21日の 12時(UTC)まで有効
西の風 5kt
視程: 10km
高度3000ftの雲は散在している
高度20000ftの雲は散在している
20日の 12時(UTC)から 20日の 15時(UTC)まで一時的に
視程: 3.2km
高度400ftの雲は散在している
高度12000ftの千切れ雲あり
高度20000ftの千切れ雲あり
20日の 1500時(UTC)から
北西の風 8kt
視程: 10km
高度2000ftの雲は散在している
20日の 15時(UTC)から 20日の 22時(UTC)まで一時的に
高度2000ftの千切れ雲あり
20日の 20時(UTC)から 20日の 22時(UTC)まで徐々に
変向風 3kt

TAF: CYYJ 201138Z 2012/2112 26005KT P6SM SCT030 SCT200 TEMPO 2012/2015 2SM BR SCT004 BKN120 BKN200 FM201500 31008KT P6SM SCT020 TEMPO 2015/2022 BKN020 BECMG 2020/2022 VRB03KT RMK NXT FCST BY 201800Z

4,000以上の空港の気象観測と天気予報(METAR報とTAF報)

利用可能な観測所は地図上に黄色い丸と赤い丸で示す。

丸の上にカーソルを重ねると観測所名を参照できる。

次にクリックすると気象観測と天気予報を参照できる。

マップの切り替え:黒色「×」印の緑ボタンをクリックして拡大、「-」印の緑ボタンをクリックして縮小、緑色の三角印をクリックして隣りの地図に切り替え


METAR-TAF: